createdAt,value
2022-12-08T00:01:16.679Z,85678.34
2022-12-08T00:03:44.242Z,85661.19
2022-12-08T00:06:38.928Z,85676.31
2022-12-08T00:09:24.360Z,85635.09
2022-12-08T00:11:55.793Z,85683.19
2022-12-08T00:14:25.394Z,85655.00
2022-12-08T00:16:52.519Z,85682.50
2022-12-08T00:19:19.683Z,85674.25
2022-12-08T00:21:46.636Z,85670.72
2022-12-08T00:24:13.718Z,85659.75
2022-12-08T00:26:40.694Z,85672.09
2022-12-08T00:29:08.702Z,85681.72
2022-12-08T00:31:38.058Z,85659.75
2022-12-08T00:34:05.087Z,85648.78
2022-12-08T00:36:32.425Z,85666.66
2022-12-08T00:39:00.081Z,85634.38
2022-12-08T00:41:47.294Z,85695.50
2022-12-08T00:44:17.161Z,85671.47
2022-12-08T00:46:44.124Z,85691.38
2022-12-08T00:49:12.010Z,85663.91
2022-12-08T00:51:38.884Z,85690.03
2022-12-08T00:54:06.784Z,85691.38
2022-12-08T00:56:34.889Z,85682.47
2022-12-08T00:59:03.344Z,85698.25
2022-12-08T01:01:30.777Z,85667.34
2022-12-08T01:03:57.859Z,85652.22
2022-12-08T01:06:24.724Z,85685.88
2022-12-08T01:08:51.743Z,85696.19
2022-12-08T01:11:19.743Z,85683.16
2022-12-08T01:13:47.192Z,85644.69
2022-12-08T01:16:26.096Z,85659.78
2022-12-08T01:18:54.059Z,85683.13
2022-12-08T01:21:22.059Z,85692.78
2022-12-08T01:23:49.089Z,85694.19
2022-12-08T01:26:17.897Z,85691.44
2022-12-08T01:28:45.882Z,85684.56
2022-12-08T01:31:16.939Z,85651.56
2022-12-08T01:33:44.701Z,85696.91
2022-12-08T01:36:25.055Z,85651.53
2022-12-08T01:38:53.248Z,85699.00
2022-12-08T01:41:22.608Z,85694.84
2022-12-08T01:43:49.435Z,85694.19
2022-12-08T01:46:16.482Z,85710.69
2022-12-08T01:48:43.782Z,85692.81
2022-12-08T01:51:10.803Z,85696.25
2022-12-08T01:53:39.217Z,85682.50
2022-12-08T01:56:09.292Z,85692.81
2022-12-08T01:58:40.068Z,85690.06
2022-12-08T02:01:08.512Z,85650.19
2022-12-08T02:03:58.653Z,85701.03
2022-12-08T02:06:28.898Z,85699.66
2022-12-08T02:08:56.903Z,85668.09
2022-12-08T02:11:23.799Z,85663.25
2022-12-08T02:13:54.555Z,85682.50
2022-12-08T02:16:21.547Z,85701.06
2022-12-08T02:19:29.289Z,85707.25
2022-12-08T02:22:15.724Z,85706.53
2022-12-08T02:25:08.157Z,85705.16
2022-12-08T02:28:04.763Z,85709.25
2022-12-08T02:31:05.373Z,85705.81
2022-12-08T02:33:44.071Z,85699.69
2022-12-08T02:36:22.828Z,85699.63
2022-12-08T02:39:21.980Z,85674.19
2022-12-08T02:42:12.445Z,85702.38
2022-12-08T02:44:46.162Z,85702.31
2022-12-08T02:47:18.023Z,85704.41
2022-12-08T02:49:45.156Z,85651.50
2022-12-08T02:52:12.007Z,85694.13
2022-12-08T02:54:44.415Z,85669.38
2022-12-08T02:57:28.288Z,85706.50
2022-12-08T03:00:11.734Z,85705.13
2022-12-08T03:02:44.505Z,85703.03
2022-12-08T03:05:11.512Z,85702.38
2022-12-08T03:07:50.172Z,85676.25
2022-12-08T03:10:22.077Z,85644.63
2022-12-08T03:12:54.349Z,85711.31
2022-12-08T03:15:22.782Z,85657.03
2022-12-08T03:17:55.456Z,85666.56
2022-12-08T03:20:25.315Z,85666.59
2022-12-08T03:22:55.909Z,85707.16
2022-12-08T03:25:24.872Z,85709.19
2022-12-08T03:27:53.527Z,85661.78
2022-12-08T03:30:20.409Z,85667.25
2022-12-08T03:33:04.297Z,85711.97
2022-12-08T03:35:34.643Z,85646.03
2022-12-08T03:38:07.706Z,85656.31
2022-12-08T03:40:35.440Z,85702.38
2022-12-08T03:43:02.610Z,85662.50
2022-12-08T03:45:29.927Z,85660.47
2022-12-08T03:47:57.196Z,85676.25
2022-12-08T03:50:24.856Z,85707.84
2022-12-08T03:52:51.845Z,85677.66
2022-12-08T03:55:18.768Z,85688.63
2022-12-08T03:57:46.101Z,85703.06
2022-12-08T04:00:15.841Z,85669.38
2022-12-08T04:02:43.314Z,85681.09
2022-12-08T04:05:10.827Z,85639.16
2022-12-08T04:07:37.905Z,85665.97
2022-12-08T04:10:05.792Z,85698.25
2022-12-08T04:12:33.052Z,85662.53
2022-12-08T04:15:00.111Z,85644.63
2022-12-08T04:17:27.354Z,85657.00
2022-12-08T04:19:54.253Z,85663.91
2022-12-08T04:22:21.252Z,85677.63
2022-12-08T04:24:48.491Z,85666.66
2022-12-08T04:27:15.456Z,85655.63
2022-12-08T04:29:42.413Z,85693.44
2022-12-08T04:32:09.349Z,85702.41
2022-12-08T04:34:36.404Z,85687.94
2022-12-08T04:37:03.389Z,85699.66
2022-12-08T04:39:30.291Z,85657.72
2022-12-08T04:41:57.254Z,85702.38
2022-12-08T04:44:24.230Z,85666.66
2022-12-08T04:46:51.264Z,85702.38
2022-12-08T04:49:18.298Z,85670.78
2022-12-08T04:51:45.253Z,85676.97
2022-12-08T04:54:12.209Z,85641.94
2022-12-08T04:56:39.360Z,85694.16
2022-12-08T04:59:06.349Z,85668.03
2022-12-08T05:01:33.538Z,85699.63
2022-12-08T05:04:00.627Z,85697.56
2022-12-08T05:06:27.600Z,85691.38
2022-12-08T05:08:55.097Z,85618.59
2022-12-08T05:11:21.986Z,85654.97
2022-12-08T05:13:48.845Z,85624.06
2022-12-08T05:16:16.531Z,85678.34
2022-12-08T05:18:43.864Z,85676.97
2022-12-08T05:21:11.463Z,85702.41
2022-12-08T05:23:38.735Z,85701.00
2022-12-08T05:26:05.896Z,85710.59
2022-12-08T05:28:41.306Z,85715.44
2022-12-08T05:31:09.139Z,85701.00
2022-12-08T05:33:36.056Z,85700.31
2022-12-08T05:36:02.966Z,85690.00
2022-12-08T05:38:29.974Z,85696.88
2022-12-08T05:40:57.369Z,85702.34
2022-12-08T05:43:24.306Z,85691.38
2022-12-08T05:45:51.219Z,85668.00
2022-12-08T05:48:18.289Z,85706.50
2022-12-08T05:50:48.633Z,85723.66
2022-12-08T05:53:16.653Z,85731.22
2022-12-08T05:55:43.761Z,85707.84
2022-12-08T05:58:14.681Z,85733.97
2022-12-08T06:00:42.205Z,85738.78
2022-12-08T06:03:11.638Z,85728.44
2022-12-08T06:05:38.552Z,85757.31
2022-12-08T06:08:05.648Z,85753.19
2022-12-08T06:10:32.649Z,85736.66
2022-12-08T06:12:59.606Z,85724.97
2022-12-08T06:15:26.955Z,85758.00
2022-12-08T06:17:53.810Z,85753.16
2022-12-08T06:20:20.808Z,85738.72
2022-12-08T06:22:47.754Z,85746.28
2022-12-08T06:25:14.609Z,85733.91
2022-12-08T06:27:41.563Z,85767.59
2022-12-08T06:30:08.963Z,85735.22
2022-12-08T06:32:37.610Z,85757.97
2022-12-08T06:35:04.963Z,85777.22
2022-12-08T06:37:32.394Z,85741.47
2022-12-08T06:39:59.476Z,85746.28
2022-12-08T06:42:45.017Z,85733.19
2022-12-08T06:45:16.676Z,85773.75
2022-12-08T06:47:44.249Z,85775.16
2022-12-08T06:50:11.803Z,85768.94
2022-12-08T06:52:47.210Z,85768.25
2022-12-08T06:55:35.343Z,85756.59
2022-12-08T06:58:01.484Z,85775.16
2022-12-08T07:00:28.352Z,85742.81
2022-12-08T07:02:55.349Z,85771.03
2022-12-08T07:05:22.343Z,85773.13
2022-12-08T07:07:49.327Z,85786.16
2022-12-08T07:10:16.414Z,85785.47
2022-12-08T07:12:43.304Z,85753.13
2022-12-08T07:15:10.812Z,85742.13
2022-12-08T07:17:37.711Z,85792.34
2022-12-08T07:20:05.481Z,85766.91
2022-12-08T07:22:32.795Z,85775.16
2022-12-08T07:24:59.740Z,85788.22
2022-12-08T07:27:26.756Z,85754.50
2022-12-08T07:29:53.752Z,85789.63
2022-12-08T07:32:20.646Z,85789.59
2022-12-08T07:34:47.610Z,85772.41
2022-12-08T07:37:14.701Z,85791.66
2022-12-08T07:39:41.686Z,85795.16
2022-12-08T07:42:08.681Z,85787.59
2022-12-08T07:44:37.398Z,85784.81
2022-12-08T07:47:04.409Z,85720.16
2022-12-08T07:49:31.333Z,85788.28
2022-12-08T07:51:58.207Z,85786.25
2022-12-08T07:54:25.116Z,85802.78
2022-12-08T07:56:52.083Z,85767.69
2022-12-08T07:59:19.787Z,85801.41
2022-12-08T08:01:56.233Z,85773.91
2022-12-08T08:04:34.918Z,85815.16
2022-12-08T08:07:01.880Z,85795.88
2022-12-08T08:09:28.791Z,85769.09
2022-12-08T08:12:22.396Z,85794.53
2022-12-08T08:14:42.600Z,85824.78
2022-12-08T08:17:09.696Z,85819.28
2022-12-08T08:19:36.697Z,85823.41
2022-12-08T08:22:03.667Z,85816.50
2022-12-08T08:24:30.597Z,85817.88
2022-12-08T08:26:57.674Z,85801.34
2022-12-08T08:29:24.756Z,85805.47
2022-12-08T08:31:51.681Z,85813.69
2022-12-08T08:34:18.648Z,85815.06
2022-12-08T08:36:45.639Z,85812.28
2022-12-08T08:39:13.481Z,85816.38
2022-12-08T08:41:40.536Z,85816.38
2022-12-08T08:44:07.613Z,85791.63
2022-12-08T08:46:34.729Z,85804.69
2022-12-08T08:49:01.702Z,85817.69
2022-12-08T08:51:28.775Z,85801.22
2022-12-08T08:53:55.765Z,85817.66
2022-12-08T08:56:23.013Z,85788.09
2022-12-08T08:58:51.202Z,85813.47
2022-12-08T09:01:21.304Z,85809.38
2022-12-08T09:03:49.191Z,85807.97
2022-12-08T09:06:16.669Z,85801.00
2022-12-08T09:08:45.053Z,85784.53
2022-12-08T09:11:12.267Z,85795.50
2022-12-08T09:13:39.526Z,85776.88
2022-12-08T09:16:08.414Z,85792.56
2022-12-08T09:18:35.656Z,85801.50
2022-12-08T09:21:13.295Z,85800.78
2022-12-08T09:23:40.334Z,85765.69
2022-12-08T09:26:07.541Z,85785.44
2022-12-08T09:28:34.886Z,85789.50
2022-12-08T09:31:02.200Z,85764.69
2022-12-08T09:33:29.442Z,85760.69
2022-12-08T09:35:56.759Z,85785.34
2022-12-08T09:38:23.792Z,85746.22
2022-12-08T09:40:53.232Z,85778.59
2022-12-08T09:43:38.313Z,85782.44
2022-12-08T09:46:07.958Z,85788.63
2022-12-08T09:48:57.256Z,85763.88
2022-12-08T09:51:25.902Z,85751.38
2022-12-08T09:54:01.580Z,85778.88
2022-12-08T09:56:33.071Z,85768.53
2022-12-08T09:59:05.709Z,85760.25
2022-12-08T10:01:38.499Z,85763.50
2022-12-08T10:04:33.844Z,85775.03
2022-12-08T10:07:04.932Z,85775.00
2022-12-08T10:09:34.862Z,85766.69
2022-12-08T10:12:17.950Z,85767.28
2022-12-08T10:14:53.394Z,85713.06
2022-12-08T10:17:25.071Z,85732.84
2022-12-08T10:20:00.303Z,85725.13
2022-12-08T10:22:34.084Z,85755.19
2022-12-08T10:25:34.389Z,85764.06
2022-12-08T10:28:01.497Z,85720.81
2022-12-08T10:30:28.383Z,85759.22
2022-12-08T10:32:55.540Z,85719.34
2022-12-08T10:35:23.824Z,85725.56
2022-12-08T10:37:58.989Z,85736.97
2022-12-08T10:40:39.094Z,85745.50
2022-12-08T10:43:24.848Z,85731.09
2022-12-08T10:45:51.960Z,85753.91
2022-12-08T10:48:22.777Z,85758.53
2022-12-08T10:50:52.865Z,85754.56
2022-12-08T10:53:31.891Z,85743.41
2022-12-08T10:56:01.944Z,85745.63
2022-12-08T10:58:43.467Z,85750.50
2022-12-08T11:01:26.747Z,85668.97
2022-12-08T11:04:05.727Z,85740.81
2022-12-08T11:06:37.782Z,85708.59
2022-12-08T11:09:22.305Z,85704.53
2022-12-08T11:11:59.606Z,85743.53
2022-12-08T11:14:32.545Z,85735.22
2022-12-08T11:17:05.274Z,85726.28
2022-12-08T11:19:38.261Z,85725.66
2022-12-08T11:22:38.004Z,85738.03
2022-12-08T11:25:08.000Z,85737.31
2022-12-08T11:27:37.272Z,85728.47
2022-12-08T11:30:15.101Z,85729.13
2022-12-08T11:32:45.011Z,85726.38
2022-12-08T11:35:27.257Z,85723.63
2022-12-08T11:38:08.055Z,85727.81
2022-12-08T11:40:44.894Z,85716.94
2022-12-08T11:43:36.709Z,85724.31
2022-12-08T11:46:15.734Z,85723.28
2022-12-08T11:49:11.282Z,85696.44
2022-12-08T11:51:48.379Z,85722.50
2022-12-08T11:54:26.879Z,85692.50
2022-12-08T11:56:58.800Z,85714.34
2022-12-08T11:59:34.862Z,85707.44
2022-12-08T12:02:04.551Z,85710.84
2022-12-08T12:04:39.871Z,85696.34
2022-12-08T12:07:12.715Z,85700.53
2022-12-08T12:09:59.838Z,85706.03
2022-12-08T12:12:43.091Z,85693.50
2022-12-08T12:15:30.729Z,85679.72
2022-12-08T12:18:02.401Z,85663.41
2022-12-08T12:20:33.713Z,85692.13
2022-12-08T12:23:07.497Z,85690.91
2022-12-08T12:25:37.053Z,85689.56
2022-12-08T12:28:09.225Z,85692.34
2022-12-08T12:30:59.242Z,85671.09
2022-12-08T12:33:27.372Z,85689.50
2022-12-08T12:35:58.114Z,85670.47
2022-12-08T12:38:54.167Z,85703.41
2022-12-08T12:41:52.715Z,85701.66
2022-12-08T12:44:19.580Z,85711.88
2022-12-08T12:46:46.513Z,85707.78
2022-12-08T12:49:38.181Z,85713.22
2022-12-08T12:52:18.226Z,85718.00
2022-12-08T12:55:10.835Z,85724.81
2022-12-08T12:57:37.807Z,85718.00
2022-12-08T13:00:04.710Z,85724.31
2022-12-08T13:02:45.438Z,85728.44
2022-12-08T13:05:18.638Z,85718.75
2022-12-08T13:07:52.539Z,85723.56
2022-12-08T13:10:24.073Z,85717.31
2022-12-08T13:13:05.608Z,85716.72
2022-12-08T13:15:41.488Z,85702.91
2022-12-08T13:18:23.995Z,85720.28
2022-12-08T13:20:55.182Z,85714.78
2022-12-08T13:23:42.791Z,85718.81
2022-12-08T13:26:17.367Z,85717.41
2022-12-08T13:29:00.085Z,85719.44
2022-12-08T13:31:37.520Z,85708.47
2022-12-08T13:34:07.085Z,85704.34
2022-12-08T13:36:39.045Z,85722.97
2022-12-08T13:39:07.225Z,85723.03
2022-12-08T13:41:44.812Z,85726.53
2022-12-08T13:47:33.499Z,85734.59
2022-12-08T13:53:49.676Z,85731.91
2022-12-08T13:56:59.458Z,85734.66
2022-12-08T13:58:47.742Z,85733.88
2022-12-08T14:01:22.420Z,85737.25
2022-12-08T14:04:12.897Z,85737.38
2022-12-08T14:06:38.921Z,85743.47
2022-12-08T14:09:11.062Z,85730.56
2022-12-08T14:11:45.239Z,85747.78
2022-12-08T14:14:46.046Z,85747.13
2022-12-08T14:17:15.445Z,85749.81
2022-12-08T14:19:55.801Z,85758.09
2022-12-08T14:22:23.899Z,85744.88
2022-12-08T14:24:54.917Z,85727.22
2022-12-08T14:27:24.188Z,85736.25
2022-12-08T14:30:00.284Z,85730.72
2022-12-08T14:32:34.347Z,85764.38
2022-12-08T14:35:07.761Z,85761.75
2022-12-08T14:37:38.620Z,85758.34
2022-12-08T14:40:10.637Z,85730.13
2022-12-08T14:42:46.644Z,85763.00
2022-12-08T14:45:16.249Z,85749.19
2022-12-08T14:47:43.913Z,85746.50
2022-12-08T14:50:35.716Z,85760.81
2022-12-08T14:53:03.502Z,85753.19
2022-12-08T14:55:37.801Z,85728.56
2022-12-08T14:58:05.257Z,85702.56
2022-12-08T15:00:33.494Z,85743.66
2022-12-08T15:03:07.926Z,85736.72
2022-12-08T15:05:35.194Z,85752.38
2022-12-08T15:08:04.070Z,85755.22
2022-12-08T15:10:35.606Z,85761.53
2022-12-08T15:13:05.578Z,85749.00
2022-12-08T15:15:46.129Z,85722.34
2022-12-08T15:18:38.029Z,85744.81
2022-12-08T15:21:09.224Z,85721.50
2022-12-08T15:23:50.150Z,85722.16
2022-12-08T15:26:28.223Z,85742.13
2022-12-08T15:28:55.709Z,85746.22
2022-12-08T15:31:22.830Z,85744.84
2022-12-08T15:33:49.900Z,85743.47
2022-12-08T15:36:16.896Z,85747.59
2022-12-08T15:38:43.854Z,85739.41
2022-12-08T15:41:14.947Z,85740.75
2022-12-08T15:43:42.685Z,85700.34
2022-12-08T15:46:09.726Z,85703.16
2022-12-08T15:48:37.901Z,85707.34
2022-12-08T15:51:04.871Z,85737.63
2022-12-08T15:53:31.822Z,85756.22
2022-12-08T15:58:56.190Z,85734.38
2022-12-08T16:01:24.672Z,85748.06
2022-12-08T16:09:36.263Z,85746.28
2022-12-08T16:12:22.254Z,85735.78
2022-12-08T16:17:37.752Z,85701.44
2022-12-08T16:20:17.006Z,85715.19
2022-12-08T16:22:59.280Z,85712.09
2022-12-08T16:25:46.068Z,85716.84
2022-12-08T16:28:52.189Z,85729.13
2022-12-08T16:31:08.840Z,85687.94
2022-12-08T16:33:38.724Z,85723.00
2022-12-08T16:36:05.829Z,85710.69
2022-12-08T16:38:33.043Z,85698.97
2022-12-08T16:41:18.836Z,85719.53
2022-12-08T16:43:45.739Z,85701.75
2022-12-08T16:46:23.258Z,85733.38
2022-12-08T16:48:50.314Z,85742.34
2022-12-08T16:51:23.431Z,85744.41
2022-12-08T16:53:53.679Z,85751.38
2022-12-08T16:56:24.140Z,85700.56
2022-12-08T16:58:55.894Z,85760.91
2022-12-08T17:01:23.925Z,85749.25
2022-12-08T17:04:14.392Z,85765.22
2022-12-08T17:06:37.965Z,85770.72
2022-12-08T17:09:04.978Z,85772.03
2022-12-08T17:11:36.236Z,85768.59
2022-12-08T17:14:06.202Z,85772.00
2022-12-08T17:16:33.194Z,85737.66
2022-12-08T17:19:00.241Z,85770.66
2022-12-08T17:21:27.204Z,85715.03
2022-12-08T17:23:54.845Z,85766.50
2022-12-08T17:26:21.821Z,85763.78
2022-12-08T17:29:04.018Z,85772.69
2022-12-08T17:31:32.621Z,85760.41
2022-12-08T17:34:04.848Z,85741.81
2022-12-08T17:36:32.223Z,85767.22
2022-12-08T17:39:00.551Z,85763.75
2022-12-08T17:41:28.213Z,85755.56
2022-12-08T17:43:55.314Z,85738.41
2022-12-08T17:46:23.357Z,85750.00
2022-12-08T17:48:50.504Z,85756.78
2022-12-08T17:51:17.871Z,85713.53
2022-12-08T17:53:45.061Z,85749.94
2022-12-08T17:56:20.726Z,85745.88
2022-12-08T17:58:52.852Z,85747.25
2022-12-08T18:01:23.347Z,85725.25
2022-12-08T18:03:50.899Z,85725.31
2022-12-08T18:06:17.930Z,85723.25
2022-12-08T18:08:45.175Z,85742.50
2022-12-08T18:11:18.737Z,85707.47
2022-12-08T18:13:47.476Z,85702.06
2022-12-08T18:16:15.654Z,85746.69
2022-12-08T18:18:42.648Z,85741.91
2022-12-08T18:21:10.084Z,85699.31
2022-12-08T18:23:38.081Z,85747.34
2022-12-08T18:26:09.909Z,85745.94
2022-12-08T18:28:38.314Z,85752.88
2022-12-08T18:31:14.797Z,85745.97
2022-12-08T18:33:43.582Z,85735.75
2022-12-08T18:36:14.149Z,85728.91
2022-12-08T18:38:41.057Z,85715.78
2022-12-08T18:41:09.914Z,85740.53
2022-12-08T18:43:37.946Z,85759.69
2022-12-08T18:46:09.565Z,85761.16
2022-12-08T18:48:38.852Z,85744.59
2022-12-08T18:51:13.239Z,85728.81
2022-12-08T18:53:40.751Z,85715.19
2022-12-08T18:56:08.852Z,85761.19
2022-12-08T18:58:35.978Z,85764.59
2022-12-08T19:01:03.057Z,85758.50
2022-12-08T19:03:30.053Z,85731.03
2022-12-08T19:06:07.427Z,85768.25
2022-12-08T19:08:34.412Z,85722.84
2022-12-08T19:11:01.716Z,85775.03
2022-12-08T19:13:28.862Z,85779.16
2022-12-08T19:15:56.000Z,85775.06
2022-12-08T19:18:23.104Z,85760.59
2022-12-08T19:20:50.231Z,85741.38
2022-12-08T19:23:17.173Z,85744.81
2022-12-08T19:25:44.154Z,85783.94
2022-12-08T19:28:11.092Z,85762.72
2022-12-08T19:30:38.162Z,85785.38
2022-12-08T19:33:05.171Z,85775.03
2022-12-08T19:35:32.149Z,85775.00
2022-12-08T19:37:59.092Z,85765.44
2022-12-08T19:40:44.581Z,85755.81
2022-12-08T19:43:37.464Z,85800.50
2022-12-08T19:46:04.639Z,85768.19
2022-12-08T19:48:31.711Z,85781.91
2022-12-08T19:50:59.072Z,85759.91
2022-12-08T19:53:26.333Z,85796.97
2022-12-08T19:55:53.388Z,85761.25
2022-12-08T19:58:20.549Z,85791.47
2022-12-08T20:00:48.085Z,85812.88
2022-12-08T20:03:20.464Z,85767.53
2022-12-08T20:05:49.761Z,85808.03
2022-12-08T20:08:17.219Z,85781.31
2022-12-08T20:10:45.240Z,85780.59
2022-12-08T20:13:31.537Z,85772.34
2022-12-08T20:15:58.800Z,85767.53
2022-12-08T20:18:25.918Z,85786.00
2022-12-08T20:20:53.096Z,85793.63
2022-12-08T20:23:20.014Z,85805.28
2022-12-08T20:25:48.001Z,85812.13
2022-12-08T20:28:15.133Z,85825.22
2022-12-08T20:30:42.965Z,85832.06
2022-12-08T20:33:13.765Z,85841.00
2022-12-08T20:35:41.599Z,85825.91
2022-12-08T20:38:08.754Z,85819.72
2022-12-08T20:40:35.836Z,85844.47
2022-12-08T20:43:02.953Z,85836.22
2022-12-08T20:45:30.015Z,85832.75
2022-12-08T20:47:56.966Z,85847.88
2022-12-08T20:50:23.931Z,85818.34
2022-12-08T20:52:50.957Z,85847.88
2022-12-08T20:55:18.256Z,85834.88
2022-12-08T20:57:45.257Z,85813.50
2022-12-08T21:00:12.905Z,85835.56
2022-12-08T21:02:46.925Z,85849.25
2022-12-08T21:05:16.359Z,85842.38
2022-12-08T21:07:43.640Z,85806.66
2022-12-08T21:10:11.006Z,85821.75
2022-12-08T21:12:38.298Z,85835.47
2022-12-08T21:15:07.696Z,85827.19
2022-12-08T21:17:34.918Z,85845.06
2022-12-08T21:20:02.458Z,85834.69
2022-12-08T21:22:29.471Z,85850.53
2022-12-08T21:24:56.624Z,85781.88
2022-12-08T21:27:23.700Z,85816.22
2022-12-08T21:29:50.590Z,85844.38
2022-12-08T21:32:17.661Z,85835.44
2022-12-08T21:34:45.595Z,85823.09
2022-12-08T21:37:12.687Z,85855.41
2022-12-08T21:39:39.747Z,85836.75
2022-12-08T21:42:30.791Z,85831.34
2022-12-08T21:45:01.319Z,85841.03
2022-12-08T21:47:28.520Z,85812.09
2022-12-08T21:49:55.711Z,85799.09
2022-12-08T21:52:23.031Z,85829.97
2022-12-08T21:54:50.030Z,85834.16
2022-12-08T21:57:17.044Z,85852.66
2022-12-08T21:59:44.102Z,85845.13
2022-12-08T22:02:19.558Z,85847.84
2022-12-08T22:04:50.261Z,85843.00
2022-12-08T22:07:17.743Z,85823.13
2022-12-08T22:09:44.799Z,85852.66
2022-12-08T22:12:12.342Z,85835.47
2022-12-08T22:14:40.813Z,85819.69
2022-12-08T22:17:08.057Z,85849.22
2022-12-08T22:19:35.482Z,85810.06
2022-12-08T22:22:03.195Z,85820.41
2022-12-08T22:24:31.283Z,85865.72
2022-12-08T22:26:58.323Z,85821.72
2022-12-08T22:29:25.335Z,85842.38
2022-12-08T22:31:52.333Z,85858.91
2022-12-08T22:34:19.529Z,85803.88
2022-12-08T22:36:46.513Z,85850.66
2022-12-08T22:39:13.431Z,85852.00
2022-12-08T22:41:40.613Z,85825.91
2022-12-08T22:44:08.080Z,85830.06
2022-12-08T22:46:35.190Z,85863.78
2022-12-08T22:49:02.623Z,85828.09
2022-12-08T22:51:29.699Z,85845.94
2022-12-08T22:53:56.822Z,85860.41
2022-12-08T22:56:23.788Z,85852.84
2022-12-08T22:58:51.657Z,85836.38
2022-12-08T23:01:31.245Z,85861.06
2022-12-08T23:04:01.387Z,85869.34
2022-12-08T23:06:30.316Z,85819.16
2022-12-08T23:08:57.903Z,85837.06
2022-12-08T23:11:28.048Z,85831.53
2022-12-08T23:13:56.409Z,85864.50
2022-12-08T23:16:23.535Z,85846.66
2022-12-08T23:18:50.943Z,85814.31
2022-12-08T23:21:19.576Z,85839.81
2022-12-08T23:23:46.950Z,85865.94
2022-12-08T23:26:27.971Z,85859.72
2022-12-08T23:28:56.382Z,85824.66
2022-12-08T23:31:24.205Z,85857.69
2022-12-08T23:33:51.865Z,85856.31
2022-12-08T23:36:21.124Z,85854.22
2022-12-08T23:38:48.524Z,85854.91
2022-12-08T23:41:16.558Z,85839.78
2022-12-08T23:43:51.879Z,85868.66
2022-12-08T23:46:21.751Z,85843.25
2022-12-08T23:48:49.725Z,85815.03
2022-12-08T23:51:17.167Z,85872.13
2022-12-08T23:53:44.564Z,85864.53
2022-12-08T23:56:15.561Z,85819.19
2022-12-08T23:58:44.112Z,85862.47
